sensor_id;sensor_type;location;lat;lon;timestamp;P1;durP1;ratioP1;P2;durP2;ratioP2
1024;SDS011;501;48.214;11.350;2024-03-25T00:00:13;2.50;;;2.00;;
1024;SDS011;501;48.214;11.350;2024-03-25T00:02:39;2.90;;;2.17;;
1024;SDS011;501;48.214;11.350;2024-03-25T00:05:06;2.17;;;1.97;;
1024;SDS011;501;48.214;11.350;2024-03-25T00:07:36;3.80;;;2.17;;
1024;SDS011;501;48.214;11.350;2024-03-25T00:10:03;2.27;;;1.80;;
1024;SDS011;501;48.214;11.350;2024-03-25T00:12:31;3.00;;;2.20;;
1024;SDS011;501;48.214;11.350;2024-03-25T00:14:57;3.47;;;2.10;;
1024;SDS011;501;48.214;11.350;2024-03-25T00:17:23;2.90;;;2.40;;
1024;SDS011;501;48.214;11.350;2024-03-25T00:19:48;5.70;;;2.20;;
1024;SDS011;501;48.214;11.350;2024-03-25T00:22:17;4.20;;;2.00;;
1024;SDS011;501;48.214;11.350;2024-03-25T00:24:44;2.80;;;2.30;;
1024;SDS011;501;48.214;11.350;2024-03-25T00:27:16;4.77;;;2.00;;
1024;SDS011;501;48.214;11.350;2024-03-25T00:29:42;5.57;;;1.77;;
1024;SDS011;501;48.214;11.350;2024-03-25T00:32:09;2.73;;;2.20;;
1024;SDS011;501;48.214;11.350;2024-03-25T00:34:35;3.33;;;1.70;;
1024;SDS011;501;48.214;11.350;2024-03-25T00:37:01;4.13;;;2.33;;
1024;SDS011;501;48.214;11.350;2024-03-25T00:39:27;3.30;;;2.00;;
1024;SDS011;501;48.214;11.350;2024-03-25T00:41:55;3.63;;;1.93;;
1024;SDS011;501;48.214;11.350;2024-03-25T00:44:21;3.20;;;2.87;;
1024;SDS011;501;48.214;11.350;2024-03-25T00:46:46;2.80;;;2.03;;
1024;SDS011;501;48.214;11.350;2024-03-25T00:49:12;3.70;;;2.00;;
1024;SDS011;501;48.214;11.350;2024-03-25T00:51:39;3.83;;;1.77;;
1024;SDS011;501;48.214;11.350;2024-03-25T00:54:04;3.53;;;2.23;;
1024;SDS011;501;48.214;11.350;2024-03-25T00:56:30;2.20;;;2.00;;
1024;SDS011;501;48.214;11.350;2024-03-25T00:58:56;6.73;;;2.10;;
1024;SDS011;501;48.214;11.350;2024-03-25T01:01:27;1.83;;;1.73;;
1024;SDS011;501;48.214;11.350;2024-03-25T01:03:56;2.17;;;1.80;;
1024;SDS011;501;48.214;11.350;2024-03-25T01:06:22;2.40;;;1.93;;
1024;SDS011;501;48.214;11.350;2024-03-25T01:08:48;3.50;;;2.10;;
1024;SDS011;501;48.214;11.350;2024-03-25T01:11:14;2.10;;;1.50;;
1024;SDS011;501;48.214;11.350;2024-03-25T01:13:40;2.90;;;2.37;;
1024;SDS011;501;48.214;11.350;2024-03-25T01:16:06;3.30;;;1.77;;
1024;SDS011;501;48.214;11.350;2024-03-25T01:18:32;2.80;;;1.70;;
1024;SDS011;501;48.214;11.350;2024-03-25T01:20:58;3.00;;;2.37;;
1024;SDS011;501;48.214;11.350;2024-03-25T01:23:24;7.17;;;1.97;;
1024;SDS011;501;48.214;11.350;2024-03-25T01:25:50;2.23;;;1.63;;
1024;SDS011;501;48.214;11.350;2024-03-25T01:28:17;2.67;;;1.90;;
1024;SDS011;501;48.214;11.350;2024-03-25T01:30:42;2.73;;;1.63;;
1024;SDS011;501;48.214;11.350;2024-03-25T01:33:08;6.57;;;2.67;;
1024;SDS011;501;48.214;11.350;2024-03-25T01:35:34;2.40;;;1.90;;
1024;SDS011;501;48.214;11.350;2024-03-25T01:38:00;7.27;;;2.20;;
1024;SDS011;501;48.214;11.350;2024-03-25T01:40:26;2.07;;;1.70;;
1024;SDS011;501;48.214;11.350;2024-03-25T01:43:02;1.87;;;1.77;;
1024;SDS011;501;48.214;11.350;2024-03-25T01:45:32;1.63;;;1.50;;
1024;SDS011;501;48.214;11.350;2024-03-25T01:47:59;1.73;;;1.63;;
1024;SDS011;501;48.214;11.350;2024-03-25T01:50:33;3.47;;;2.40;;
1024;SDS011;501;48.214;11.350;2024-03-25T01:53:02;2.40;;;2.20;;
1024;SDS011;501;48.214;11.350;2024-03-25T01:55:29;3.40;;;2.07;;
1024;SDS011;501;48.214;11.350;2024-03-25T01:57:55;2.00;;;1.90;;
1024;SDS011;501;48.214;11.350;2024-03-25T02:00:22;2.83;;;2.27;;
1024;SDS011;501;48.214;11.350;2024-03-25T02:02:51;4.90;;;2.57;;
1024;SDS011;501;48.214;11.350;2024-03-25T02:05:18;2.90;;;2.13;;
1024;SDS011;501;48.214;11.350;2024-03-25T02:07:44;2.37;;;2.17;;
1024;SDS011;501;48.214;11.350;2024-03-25T02:10:10;2.97;;;2.57;;
1024;SDS011;501;48.214;11.350;2024-03-25T02:12:40;5.00;;;2.70;;
1024;SDS011;501;48.214;11.350;2024-03-25T02:15:10;4.13;;;2.50;;
1024;SDS011;501;48.214;11.350;2024-03-25T02:17:36;3.53;;;2.77;;
1024;SDS011;501;48.214;11.350;2024-03-25T02:20:02;3.43;;;2.70;;
1024;SDS011;501;48.214;11.350;2024-03-25T02:22:30;2.93;;;2.30;;
1024;SDS011;501;48.214;11.350;2024-03-25T02:25:00;2.80;;;2.50;;
1024;SDS011;501;48.214;11.350;2024-03-25T02:27:26;4.53;;;3.10;;
1024;SDS011;501;48.214;11.350;2024-03-25T02:30:06;3.33;;;2.97;;
1024;SDS011;501;48.214;11.350;2024-03-25T02:32:39;2.70;;;2.50;;
1024;SDS011;501;48.214;11.350;2024-03-25T02:35:05;2.67;;;2.47;;
1024;SDS011;501;48.214;11.350;2024-03-25T02:37:35;3.93;;;2.77;;
1024;SDS011;501;48.214;11.350;2024-03-25T02:40:01;3.70;;;2.43;;
1024;SDS011;501;48.214;11.350;2024-03-25T02:42:30;5.37;;;2.87;;
1024;SDS011;501;48.214;11.350;2024-03-25T02:44:57;4.70;;;3.33;;
1024;SDS011;501;48.214;11.350;2024-03-25T02:47:23;2.97;;;2.40;;
1024;SDS011;501;48.214;11.350;2024-03-25T02:49:49;4.10;;;3.07;;
1024;SDS011;501;48.214;11.350;2024-03-25T02:52:16;2.90;;;2.60;;
1024;SDS011;501;48.214;11.350;2024-03-25T02:54:43;5.83;;;2.47;;
1024;SDS011;501;48.214;11.350;2024-03-25T02:57:08;6.90;;;3.07;;
1024;SDS011;501;48.214;11.350;2024-03-25T02:59:34;5.63;;;2.87;;
1024;SDS011;501;48.214;11.350;2024-03-25T03:01:59;3.47;;;2.67;;
1024;SDS011;501;48.214;11.350;2024-03-25T03:04:25;4.00;;;2.43;;
1024;SDS011;501;48.214;11.350;2024-03-25T03:06:51;4.80;;;2.53;;
1024;SDS011;501;48.214;11.350;2024-03-25T03:09:16;2.77;;;2.57;;
1024;SDS011;501;48.214;11.350;2024-03-25T03:11:42;2.80;;;2.23;;
1024;SDS011;501;48.214;11.350;2024-03-25T03:14:07;2.90;;;2.57;;
1024;SDS011;501;48.214;11.350;2024-03-25T03:16:33;4.23;;;2.77;;
1024;SDS011;501;48.214;11.350;2024-03-25T03:18:59;3.87;;;2.40;;
1024;SDS011;501;48.214;11.350;2024-03-25T03:21:25;2.63;;;2.43;;
1024;SDS011;501;48.214;11.350;2024-03-25T03:23:50;4.40;;;2.80;;
1024;SDS011;501;48.214;11.350;2024-03-25T03:26:16;3.70;;;2.27;;
1024;SDS011;501;48.214;11.350;2024-03-25T03:28:42;4.43;;;2.30;;
1024;SDS011;501;48.214;11.350;2024-03-25T03:31:08;3.00;;;2.80;;
1024;SDS011;501;48.214;11.350;2024-03-25T03:33:33;2.90;;;2.60;;
1024;SDS011;501;48.214;11.350;2024-03-25T03:35:59;4.90;;;2.80;;
1024;SDS011;501;48.214;11.350;2024-03-25T03:38:26;2.80;;;2.47;;
1024;SDS011;501;48.214;11.350;2024-03-25T03:40:56;5.00;;;2.27;;
1024;SDS011;501;48.214;11.350;2024-03-25T03:43:25;2.67;;;2.47;;
1024;SDS011;501;48.214;11.350;2024-03-25T03:45:50;2.50;;;2.30;;
1024;SDS011;501;48.214;11.350;2024-03-25T03:48:16;2.77;;;2.03;;
1024;SDS011;501;48.214;11.350;2024-03-25T03:50:42;2.40;;;2.20;;
1024;SDS011;501;48.214;11.350;2024-03-25T03:53:08;6.07;;;2.57;;
1024;SDS011;501;48.214;11.350;2024-03-25T03:55:34;3.80;;;2.23;;
1024;SDS011;501;48.214;11.350;2024-03-25T03:58:00;4.53;;;2.53;;
1024;SDS011;501;48.214;11.350;2024-03-25T04:00:25;4.20;;;2.77;;
1024;SDS011;501;48.214;11.350;2024-03-25T04:02:51;3.77;;;2.67;;
1024;SDS011;501;48.214;11.350;2024-03-25T04:05:17;7.60;;;2.20;;
1024;SDS011;501;48.214;11.350;2024-03-25T04:07:43;2.37;;;2.20;;
1024;SDS011;501;48.214;11.350;2024-03-25T04:10:09;4.17;;;2.67;;
1024;SDS011;501;48.214;11.350;2024-03-25T04:12:35;2.63;;;2.10;;
1024;SDS011;501;48.214;11.350;2024-03-25T04:15:02;4.93;;;2.27;;
1024;SDS011;501;48.214;11.350;2024-03-25T04:17:28;4.50;;;3.17;;
1024;SDS011;501;48.214;11.350;2024-03-25T04:19:53;3.50;;;2.70;;
1024;SDS011;501;48.214;11.350;2024-03-25T04:22:19;4.20;;;2.40;;
1024;SDS011;501;48.214;11.350;2024-03-25T04:24:45;3.63;;;2.47;;
1024;SDS011;501;48.214;11.350;2024-03-25T04:27:12;3.40;;;2.80;;
1024;SDS011;501;48.214;11.350;2024-03-25T04:29:37;2.70;;;1.90;;
1024;SDS011;501;48.214;11.350;2024-03-25T04:32:03;2.40;;;2.20;;
1024;SDS011;501;48.214;11.350;2024-03-25T04:34:29;3.47;;;2.77;;
1024;SDS011;501;48.214;11.350;2024-03-25T04:36:55;3.03;;;2.50;;
1024;SDS011;501;48.214;11.350;2024-03-25T04:39:21;2.13;;;2.03;;
1024;SDS011;501;48.214;11.350;2024-03-25T04:41:47;2.30;;;2.10;;
1024;SDS011;501;48.214;11.350;2024-03-25T04:44:13;4.17;;;2.40;;
1024;SDS011;501;48.214;11.350;2024-03-25T04:46:39;3.33;;;2.47;;
1024;SDS011;501;48.214;11.350;2024-03-25T04:49:05;4.40;;;2.73;;
1024;SDS011;501;48.214;11.350;2024-03-25T04:51:31;6.87;;;2.60;;
1024;SDS011;501;48.214;11.350;2024-03-25T04:53:56;2.20;;;2.00;;
1024;SDS011;501;48.214;11.350;2024-03-25T04:56:22;3.30;;;2.20;;
1024;SDS011;501;48.214;11.350;2024-03-25T04:58:48;5.53;;;2.40;;
1024;SDS011;501;48.214;11.350;2024-03-25T05:01:13;2.20;;;2.00;;
1024;SDS011;501;48.214;11.350;2024-03-25T05:03:39;8.23;;;2.47;;
1024;SDS011;501;48.214;11.350;2024-03-25T05:06:05;4.70;;;2.73;;
1024;SDS011;501;48.214;11.350;2024-03-25T05:08:30;2.43;;;2.03;;
1024;SDS011;501;48.214;11.350;2024-03-25T05:10:57;5.67;;;3.20;;
1024;SDS011;501;48.214;11.350;2024-03-25T05:13:22;4.60;;;2.97;;
1024;SDS011;501;48.214;11.350;2024-03-25T05:15:51;3.80;;;2.70;;
1024;SDS011;501;48.214;11.350;2024-03-25T05:18:17;4.23;;;3.00;;
1024;SDS011;501;48.214;11.350;2024-03-25T05:20:44;2.57;;;2.37;;
1024;SDS011;501;48.214;11.350;2024-03-25T05:23:10;3.00;;;2.53;;
1024;SDS011;501;48.214;11.350;2024-03-25T05:25:36;8.20;;;2.93;;
1024;SDS011;501;48.214;11.350;2024-03-25T05:28:03;3.33;;;2.50;;
1024;SDS011;501;48.214;11.350;2024-03-25T05:30:29;2.67;;;2.40;;
1024;SDS011;501;48.214;11.350;2024-03-25T05:32:55;4.40;;;3.07;;
1024;SDS011;501;48.214;11.350;2024-03-25T05:35:20;4.10;;;2.47;;
1024;SDS011;501;48.214;11.350;2024-03-25T05:37:46;3.40;;;3.00;;
1024;SDS011;501;48.214;11.350;2024-03-25T05:40:12;3.07;;;2.37;;
1024;SDS011;501;48.214;11.350;2024-03-25T05:42:38;3.90;;;3.20;;
1024;SDS011;501;48.214;11.350;2024-03-25T05:45:03;3.40;;;3.07;;
1024;SDS011;501;48.214;11.350;2024-03-25T05:47:29;5.60;;;3.07;;
1024;SDS011;501;48.214;11.350;2024-03-25T05:49:55;2.57;;;2.30;;
1024;SDS011;501;48.214;11.350;2024-03-25T05:52:21;3.27;;;2.47;;
1024;SDS011;501;48.214;11.350;2024-03-25T05:54:47;7.40;;;2.70;;
1024;SDS011;501;48.214;11.350;2024-03-25T05:57:12;3.80;;;2.30;;
1024;SDS011;501;48.214;11.350;2024-03-25T05:59:38;5.10;;;2.60;;
1024;SDS011;501;48.214;11.350;2024-03-25T06:08:52;3.23;;;2.47;;
1024;SDS011;501;48.214;11.350;2024-03-25T06:11:18;4.27;;;2.90;;
1024;SDS011;501;48.214;11.350;2024-03-25T06:13:47;2.83;;;2.23;;
1024;SDS011;501;48.214;11.350;2024-03-25T06:16:13;5.13;;;2.37;;
1024;SDS011;501;48.214;11.350;2024-03-25T06:18:39;4.80;;;3.00;;
1024;SDS011;501;48.214;11.350;2024-03-25T06:32:59;5.33;;;2.53;;
1024;SDS011;501;48.214;11.350;2024-03-25T06:35:43;5.70;;;2.30;;
1024;SDS011;501;48.214;11.350;2024-03-25T06:38:10;2.53;;;2.27;;
1024;SDS011;501;48.214;11.350;2024-03-25T06:40:36;3.23;;;2.47;;
1024;SDS011;501;48.214;11.350;2024-03-25T06:43:03;2.90;;;2.30;;
1024;SDS011;501;48.214;11.350;2024-03-25T06:45:29;4.23;;;2.20;;
1024;SDS011;501;48.214;11.350;2024-03-25T06:47:54;6.43;;;2.30;;
1024;SDS011;501;48.214;11.350;2024-03-25T06:50:20;4.50;;;2.70;;
1024;SDS011;501;48.214;11.350;2024-03-25T06:52:46;4.97;;;3.10;;
1024;SDS011;501;48.214;11.350;2024-03-25T06:55:12;2.60;;;2.20;;
1024;SDS011;501;48.214;11.350;2024-03-25T06:57:38;4.53;;;2.40;;
1024;SDS011;501;48.214;11.350;2024-03-25T07:00:03;6.93;;;2.97;;
1024;SDS011;501;48.214;11.350;2024-03-25T07:02:34;2.40;;;1.80;;
1024;SDS011;501;48.214;11.350;2024-03-25T07:05:00;5.67;;;2.07;;
1024;SDS011;501;48.214;11.350;2024-03-25T07:07:26;3.27;;;2.70;;
1024;SDS011;501;48.214;11.350;2024-03-25T07:09:51;6.20;;;2.57;;
1024;SDS011;501;48.214;11.350;2024-03-25T07:12:17;3.50;;;2.53;;
1024;SDS011;501;48.214;11.350;2024-03-25T07:14:43;3.47;;;2.50;;
1024;SDS011;501;48.214;11.350;2024-03-25T07:17:09;4.57;;;2.43;;
1024;SDS011;501;48.214;11.350;2024-03-25T07:19:35;2.90;;;2.50;;
1024;SDS011;501;48.214;11.350;2024-03-25T07:22:00;4.70;;;2.50;;
1024;SDS011;501;48.214;11.350;2024-03-25T07:24:26;4.07;;;2.83;;
1024;SDS011;501;48.214;11.350;2024-03-25T07:26:51;7.27;;;3.00;;
1024;SDS011;501;48.214;11.350;2024-03-25T07:29:17;4.07;;;2.00;;
1024;SDS011;501;48.214;11.350;2024-03-25T07:31:43;3.80;;;2.80;;
1024;SDS011;501;48.214;11.350;2024-03-25T07:34:08;8.17;;;2.33;;
1024;SDS011;501;48.214;11.350;2024-03-25T07:36:36;6.23;;;2.60;;
1024;SDS011;501;48.214;11.350;2024-03-25T07:39:03;5.10;;;2.90;;
1024;SDS011;501;48.214;11.350;2024-03-25T07:41:31;2.27;;;2.00;;
1024;SDS011;501;48.214;11.350;2024-03-25T07:43:56;3.80;;;2.40;;
1024;SDS011;501;48.214;11.350;2024-03-25T07:46:22;3.00;;;2.53;;
1024;SDS011;501;48.214;11.350;2024-03-25T07:48:48;2.93;;;2.30;;
1024;SDS011;501;48.214;11.350;2024-03-25T07:51:13;3.67;;;2.50;;
1024;SDS011;501;48.214;11.350;2024-03-25T07:53:39;5.00;;;2.70;;
1024;SDS011;501;48.214;11.350;2024-03-25T07:56:05;7.60;;;2.50;;
1024;SDS011;501;48.214;11.350;2024-03-25T07:58:30;5.00;;;2.57;;
1024;SDS011;501;48.214;11.350;2024-03-25T08:00:56;2.97;;;2.30;;
1024;SDS011;501;48.214;11.350;2024-03-25T08:03:22;5.70;;;2.93;;
1024;SDS011;501;48.214;11.350;2024-03-25T08:05:50;5.23;;;3.03;;
1024;SDS011;501;48.214;11.350;2024-03-25T08:08:15;2.80;;;2.40;;
1024;SDS011;501;48.214;11.350;2024-03-25T08:10:41;2.73;;;2.50;;
1024;SDS011;501;48.214;11.350;2024-03-25T08:13:06;3.37;;;2.60;;
1024;SDS011;501;48.214;11.350;2024-03-25T08:15:32;5.17;;;2.73;;
1024;SDS011;501;48.214;11.350;2024-03-25T08:17:58;5.90;;;3.00;;
1024;SDS011;501;48.214;11.350;2024-03-25T08:20:23;2.80;;;2.37;;
1024;SDS011;501;48.214;11.350;2024-03-25T08:22:49;5.03;;;2.40;;
1024;SDS011;501;48.214;11.350;2024-03-25T08:25:15;4.17;;;2.73;;
1024;SDS011;501;48.214;11.350;2024-03-25T08:27:40;4.77;;;3.47;;
1024;SDS011;501;48.214;11.350;2024-03-25T08:30:06;4.30;;;2.77;;
1024;SDS011;501;48.214;11.350;2024-03-25T08:32:32;3.50;;;2.63;;
1024;SDS011;501;48.214;11.350;2024-03-25T08:34:58;5.33;;;3.10;;
1024;SDS011;501;48.214;11.350;2024-03-25T08:37:24;4.37;;;2.87;;
1024;SDS011;501;48.214;11.350;2024-03-25T08:39:49;3.90;;;3.43;;
1024;SDS011;501;48.214;11.350;2024-03-25T08:42:15;4.90;;;3.60;;
1024;SDS011;501;48.214;11.350;2024-03-25T08:44:40;4.47;;;3.10;;
1024;SDS011;501;48.214;11.350;2024-03-25T08:47:06;6.23;;;3.90;;
1024;SDS011;501;48.214;11.350;2024-03-25T08:49:32;3.43;;;3.03;;
1024;SDS011;501;48.214;11.350;2024-03-25T08:51:57;5.50;;;3.23;;
1024;SDS011;501;48.214;11.350;2024-03-25T08:54:23;3.23;;;2.70;;
1024;SDS011;501;48.214;11.350;2024-03-25T08:56:49;3.57;;;2.90;;
1024;SDS011;501;48.214;11.350;2024-03-25T08:59:14;6.23;;;3.37;;
1024;SDS011;501;48.214;11.350;2024-03-25T09:01:40;4.33;;;3.23;;
1024;SDS011;501;48.214;11.350;2024-03-25T09:04:06;6.40;;;3.17;;
1024;SDS011;501;48.214;11.350;2024-03-25T09:06:31;4.27;;;2.87;;
1024;SDS011;501;48.214;11.350;2024-03-25T09:08:57;3.67;;;2.80;;
1024;SDS011;501;48.214;11.350;2024-03-25T09:11:41;5.00;;;3.30;;
1024;SDS011;501;48.214;11.350;2024-03-25T09:14:07;4.60;;;2.80;;
1024;SDS011;501;48.214;11.350;2024-03-25T09:16:34;4.90;;;3.40;;
1024;SDS011;501;48.214;11.350;2024-03-25T09:19:00;2.90;;;2.70;;
1024;SDS011;501;48.214;11.350;2024-03-25T09:26:51;3.40;;;2.87;;
1024;SDS011;501;48.214;11.350;2024-03-25T09:29:17;6.33;;;2.33;;
1024;SDS011;501;48.214;11.350;2024-03-25T09:31:43;9.50;;;2.70;;
1024;SDS011;501;48.214;11.350;2024-03-25T09:34:09;3.33;;;2.57;;
1024;SDS011;501;48.214;11.350;2024-03-25T09:36:34;2.97;;;2.40;;
1024;SDS011;501;48.214;11.350;2024-03-25T09:39:00;3.87;;;2.40;;
1024;SDS011;501;48.214;11.350;2024-03-25T09:44:01;7.07;;;2.73;;
1024;SDS011;501;48.214;11.350;2024-03-25T09:46:30;5.20;;;2.80;;
1024;SDS011;501;48.214;11.350;2024-03-25T09:48:56;3.17;;;2.27;;
1024;SDS011;501;48.214;11.350;2024-03-25T09:51:22;2.80;;;2.17;;
1024;SDS011;501;48.214;11.350;2024-03-25T09:53:47;5.70;;;2.53;;
1024;SDS011;501;48.214;11.350;2024-03-25T09:56:13;2.60;;;2.30;;
1024;SDS011;501;48.214;11.350;2024-03-25T09:58:40;4.33;;;2.90;;
1024;SDS011;501;48.214;11.350;2024-03-25T10:01:07;2.53;;;2.20;;
1024;SDS011;501;48.214;11.350;2024-03-25T10:03:32;2.60;;;2.00;;
1024;SDS011;501;48.214;11.350;2024-03-25T10:05:58;4.17;;;1.73;;
1024;SDS011;501;48.214;11.350;2024-03-25T10:08:24;2.70;;;1.93;;
1024;SDS011;501;48.214;11.350;2024-03-25T10:10:51;2.83;;;1.70;;
1024;SDS011;501;48.214;11.350;2024-03-25T10:13:17;2.07;;;1.67;;
1024;SDS011;501;48.214;11.350;2024-03-25T10:15:43;3.70;;;2.00;;
1024;SDS011;501;48.214;11.350;2024-03-25T10:18:11;2.23;;;2.00;;
1024;SDS011;501;48.214;11.350;2024-03-25T10:20:36;2.47;;;2.20;;
1024;SDS011;501;48.214;11.350;2024-03-25T10:31:03;3.10;;;1.50;;
1024;SDS011;501;48.214;11.350;2024-03-25T10:33:30;3.33;;;1.43;;
1024;SDS011;501;48.214;11.350;2024-03-25T10:35:56;1.67;;;1.53;;
1024;SDS011;501;48.214;11.350;2024-03-25T10:38:23;2.30;;;1.50;;
1024;SDS011;501;48.214;11.350;2024-03-25T10:40:50;2.10;;;1.87;;
1024;SDS011;501;48.214;11.350;2024-03-25T10:43:21;1.70;;;1.30;;
1024;SDS011;501;48.214;11.350;2024-03-25T10:45:51;1.53;;;1.43;;
1024;SDS011;501;48.214;11.350;2024-03-25T10:48:31;2.13;;;1.90;;
1024;SDS011;501;48.214;11.350;2024-03-25T10:51:02;1.80;;;1.70;;
1024;SDS011;501;48.214;11.350;2024-03-25T10:53:31;1.70;;;1.60;;
1024;SDS011;501;48.214;11.350;2024-03-25T10:56:00;1.73;;;1.60;;
1024;SDS011;501;48.214;11.350;2024-03-25T10:58:26;3.93;;;1.60;;
1024;SDS011;501;48.214;11.350;2024-03-25T11:00:54;2.33;;;1.47;;
1024;SDS011;501;48.214;11.350;2024-03-25T11:03:22;1.53;;;1.20;;
1024;SDS011;501;48.214;11.350;2024-03-25T11:05:51;1.13;;;1.10;;
1024;SDS011;501;48.214;11.350;2024-03-25T11:08:17;1.53;;;1.43;;
1024;SDS011;501;48.214;11.350;2024-03-25T11:10:43;1.73;;;1.20;;
1024;SDS011;501;48.214;11.350;2024-03-25T11:13:10;1.53;;;1.40;;
1024;SDS011;501;48.214;11.350;2024-03-25T11:15:37;1.97;;;1.50;;
1024;SDS011;501;48.214;11.350;2024-03-25T11:18:10;2.10;;;1.53;;
1024;SDS011;501;48.214;11.350;2024-03-25T11:20:39;1.10;;;1.00;;
1024;SDS011;501;48.214;11.350;2024-03-25T11:23:09;1.63;;;1.53;;
1024;SDS011;501;48.214;11.350;2024-03-25T11:25:38;1.47;;;1.20;;
1024;SDS011;501;48.214;11.350;2024-03-25T11:28:05;1.30;;;1.20;;
1024;SDS011;501;48.214;11.350;2024-03-25T11:30:31;1.40;;;1.30;;
1024;SDS011;501;48.214;11.350;2024-03-25T11:33:00;1.67;;;1.57;;
1024;SDS011;501;48.214;11.350;2024-03-25T11:35:27;1.43;;;1.33;;
1024;SDS011;501;48.214;11.350;2024-03-25T11:37:53;1.77;;;1.33;;
1024;SDS011;501;48.214;11.350;2024-03-25T11:40:19;1.40;;;1.23;;
1024;SDS011;501;48.214;11.350;2024-03-25T11:45:32;1.40;;;1.30;;
1024;SDS011;501;48.214;11.350;2024-03-25T11:47:58;2.30;;;1.60;;
1024;SDS011;501;48.214;11.350;2024-03-25T11:50:24;1.67;;;1.20;;
1024;SDS011;501;48.214;11.350;2024-03-25T11:52:55;2.30;;;1.50;;
1024;SDS011;501;48.214;11.350;2024-03-25T11:55:21;1.53;;;1.43;;
1024;SDS011;501;48.214;11.350;2024-03-25T11:57:58;2.10;;;1.20;;
1024;SDS011;501;48.214;11.350;2024-03-25T12:00:25;1.47;;;1.37;;
1024;SDS011;501;48.214;11.350;2024-03-25T12:02:57;1.83;;;1.03;;
1024;SDS011;501;48.214;11.350;2024-03-25T12:05:24;4.50;;;1.50;;
1024;SDS011;501;48.214;11.350;2024-03-25T12:07:50;1.37;;;1.07;;
1024;SDS011;501;48.214;11.350;2024-03-25T12:10:16;2.03;;;1.50;;
1024;SDS011;501;48.214;11.350;2024-03-25T12:13:01;3.20;;;2.23;;
1024;SDS011;501;48.214;11.350;2024-03-25T12:15:27;6.43;;;1.33;;
1024;SDS011;501;48.214;11.350;2024-03-25T12:17:53;1.73;;;1.20;;
1024;SDS011;501;48.214;11.350;2024-03-25T12:20:30;1.90;;;1.60;;
1024;SDS011;501;48.214;11.350;2024-03-25T12:22:55;2.63;;;1.73;;
1024;SDS011;501;48.214;11.350;2024-03-25T12:25:41;2.00;;;1.30;;
1024;SDS011;501;48.214;11.350;2024-03-25T12:28:16;3.87;;;1.80;;
1024;SDS011;501;48.214;11.350;2024-03-25T12:30:49;1.37;;;1.27;;
1024;SDS011;501;48.214;11.350;2024-03-25T12:33:16;2.30;;;1.53;;
1024;SDS011;501;48.214;11.350;2024-03-25T12:35:46;1.80;;;1.47;;
1024;SDS011;501;48.214;11.350;2024-03-25T12:38:28;1.80;;;1.33;;
1024;SDS011;501;48.214;11.350;2024-03-25T12:43:33;0.93;;;0.93;;
1024;SDS011;501;48.214;11.350;2024-03-25T12:46:00;0.90;;;0.90;;
1024;SDS011;501;48.214;11.350;2024-03-25T12:48:30;6.47;;;1.73;;
1024;SDS011;501;48.214;11.350;2024-03-25T12:50:55;3.77;;;1.30;;
1024;SDS011;501;48.214;11.350;2024-03-25T12:53:21;1.40;;;1.30;;
1024;SDS011;501;48.214;11.350;2024-03-25T12:55:47;2.53;;;1.20;;
1024;SDS011;501;48.214;11.350;2024-03-25T12:58:13;3.00;;;1.80;;
1024;SDS011;501;48.214;11.350;2024-03-25T13:00:39;2.43;;;1.17;;
1024;SDS011;501;48.214;11.350;2024-03-25T13:03:06;2.70;;;1.30;;
1024;SDS011;501;48.214;11.350;2024-03-25T13:05:33;4.53;;;1.50;;
1024;SDS011;501;48.214;11.350;2024-03-25T13:07:59;4.43;;;1.43;;
1024;SDS011;501;48.214;11.350;2024-03-25T13:10:26;1.00;;;1.00;;
1024;SDS011;501;48.214;11.350;2024-03-25T13:12:52;1.33;;;1.23;;
1024;SDS011;501;48.214;11.350;2024-03-25T13:15:18;4.77;;;1.60;;
1024;SDS011;501;48.214;11.350;2024-03-25T13:17:43;1.80;;;1.20;;
1024;SDS011;501;48.214;11.350;2024-03-25T13:20:09;2.43;;;1.30;;
1024;SDS011;501;48.214;11.350;2024-03-25T13:22:38;1.63;;;1.30;;
1024;SDS011;501;48.214;11.350;2024-03-25T13:25:05;1.90;;;1.10;;
1024;SDS011;501;48.214;11.350;2024-03-25T13:27:34;1.20;;;1.10;;
1024;SDS011;501;48.214;11.350;2024-03-25T13:29:59;1.47;;;1.20;;
1024;SDS011;501;48.214;11.350;2024-03-25T13:32:25;1.40;;;1.27;;
1024;SDS011;501;48.214;11.350;2024-03-25T13:34:51;2.70;;;1.10;;
1024;SDS011;501;48.214;11.350;2024-03-25T13:37:17;1.37;;;0.90;;
1024;SDS011;501;48.214;11.350;2024-03-25T13:39:42;1.47;;;1.30;;
1024;SDS011;501;48.214;11.350;2024-03-25T13:42:08;1.27;;;1.17;;
1024;SDS011;501;48.214;11.350;2024-03-25T13:44:34;4.10;;;1.10;;
1024;SDS011;501;48.214;11.350;2024-03-25T13:46:59;2.63;;;1.20;;
1024;SDS011;501;48.214;11.350;2024-03-25T13:49:25;1.70;;;1.43;;
1024;SDS011;501;48.214;11.350;2024-03-25T13:51:51;2.40;;;1.20;;
1024;SDS011;501;48.214;11.350;2024-03-25T13:54:23;1.23;;;1.00;;
1024;SDS011;501;48.214;11.350;2024-03-25T13:56:49;2.63;;;1.70;;
1024;SDS011;501;48.214;11.350;2024-03-25T13:59:15;3.47;;;1.63;;
1024;SDS011;501;48.214;11.350;2024-03-25T14:01:41;2.70;;;1.53;;
1024;SDS011;501;48.214;11.350;2024-03-25T14:04:06;1.17;;;1.07;;
1024;SDS011;501;48.214;11.350;2024-03-25T14:06:32;2.20;;;1.37;;
1024;SDS011;501;48.214;11.350;2024-03-25T14:08:58;1.77;;;1.20;;
1024;SDS011;501;48.214;11.350;2024-03-25T14:11:24;1.40;;;1.30;;
1024;SDS011;501;48.214;11.350;2024-03-25T14:13:50;1.50;;;1.07;;
1024;SDS011;501;48.214;11.350;2024-03-25T14:16:16;1.13;;;1.03;;
1024;SDS011;501;48.214;11.350;2024-03-25T14:18:42;3.27;;;1.30;;
1024;SDS011;501;48.214;11.350;2024-03-25T14:21:07;1.43;;;1.33;;
1024;SDS011;501;48.214;11.350;2024-03-25T14:23:33;1.37;;;1.27;;
1024;SDS011;501;48.214;11.350;2024-03-25T14:25:59;2.00;;;1.60;;
1024;SDS011;501;48.214;11.350;2024-03-25T14:28:24;1.50;;;1.40;;
1024;SDS011;501;48.214;11.350;2024-03-25T14:30:50;4.27;;;1.40;;
1024;SDS011;501;48.214;11.350;2024-03-25T14:33:16;1.60;;;1.40;;
1024;SDS011;501;48.214;11.350;2024-03-25T14:35:42;1.80;;;1.20;;
1024;SDS011;501;48.214;11.350;2024-03-25T14:38:08;1.97;;;1.40;;
1024;SDS011;501;48.214;11.350;2024-03-25T14:40:37;1.43;;;1.33;;
1024;SDS011;501;48.214;11.350;2024-03-25T14:43:06;2.37;;;1.40;;
1024;SDS011;501;48.214;11.350;2024-03-25T14:45:32;3.40;;;1.30;;
1024;SDS011;501;48.214;11.350;2024-03-25T14:47:58;4.90;;;1.60;;
1024;SDS011;501;48.214;11.350;2024-03-25T14:50:23;1.87;;;1.33;;
1024;SDS011;501;48.214;11.350;2024-03-25T14:52:49;5.17;;;1.57;;
1024;SDS011;501;48.214;11.350;2024-03-25T14:55:15;2.73;;;1.43;;
1024;SDS011;501;48.214;11.350;2024-03-25T14:57:40;1.67;;;1.40;;
1024;SDS011;501;48.214;11.350;2024-03-25T15:00:06;2.40;;;1.50;;
1024;SDS011;501;48.214;11.350;2024-03-25T15:02:32;1.50;;;1.40;;
1024;SDS011;501;48.214;11.350;2024-03-25T15:04:57;2.03;;;1.60;;
1024;SDS011;501;48.214;11.350;2024-03-25T15:07:23;2.03;;;1.70;;
1024;SDS011;501;48.214;11.350;2024-03-25T15:09:50;2.20;;;1.57;;
1024;SDS011;501;48.214;11.350;2024-03-25T15:12:16;2.10;;;1.37;;
1024;SDS011;501;48.214;11.350;2024-03-25T15:14:41;1.90;;;1.30;;
1024;SDS011;501;48.214;11.350;2024-03-25T15:17:07;2.67;;;1.63;;
1024;SDS011;501;48.214;11.350;2024-03-25T15:19:32;2.17;;;1.70;;
1024;SDS011;501;48.214;11.350;2024-03-25T15:21:58;2.10;;;1.70;;
1024;SDS011;501;48.214;11.350;2024-03-25T15:24:24;2.30;;;1.20;;
1024;SDS011;501;48.214;11.350;2024-03-25T15:26:50;2.00;;;1.50;;
1024;SDS011;501;48.214;11.350;2024-03-25T15:29:15;2.40;;;1.80;;
1024;SDS011;501;48.214;11.350;2024-03-25T15:31:41;3.50;;;1.70;;
1024;SDS011;501;48.214;11.350;2024-03-25T15:34:06;1.40;;;1.30;;
1024;SDS011;501;48.214;11.350;2024-03-25T15:36:32;1.23;;;1.13;;
1024;SDS011;501;48.214;11.350;2024-03-25T15:38:59;2.23;;;1.40;;
1024;SDS011;501;48.214;11.350;2024-03-25T15:41:24;3.33;;;1.60;;
1024;SDS011;501;48.214;11.350;2024-03-25T15:43:53;1.70;;;1.60;;
1024;SDS011;501;48.214;11.350;2024-03-25T15:46:19;3.73;;;1.63;;
1024;SDS011;501;48.214;11.350;2024-03-25T15:48:45;1.83;;;1.70;;
1024;SDS011;501;48.214;11.350;2024-03-25T15:51:11;2.23;;;1.40;;